sensor_id;sensor_type;location;lat;lon;timestamp;temperature;humidity
29551;DHT22;16488;52.396;10.696;2022-08-04T00:00:30;19.20;99.90
29551;DHT22;16488;52.396;10.696;2022-08-04T00:03:18;19.10;99.90
29551;DHT22;16488;52.396;10.696;2022-08-04T00:08:39;19.00;99.90
29551;DHT22;16488;52.396;10.696;2022-08-04T00:11:08;19.00;99.90
29551;DHT22;16488;52.396;10.696;2022-08-04T00:13:38;18.90;99.90
29551;DHT22;16488;52.396;10.696;2022-08-04T00:16:07;18.90;99.90
29551;DHT22;16488;52.396;10.696;2022-08-04T00:18:37;18.90;99.90
29551;DHT22;16488;52.396;10.696;2022-08-04T00:21:05;19.00;99.90
29551;DHT22;16488;52.396;10.696;2022-08-04T00:23:34;19.00;99.90
29551;DHT22;16488;52.396;10.696;2022-08-04T00:26:01;19.00;99.90
29551;DHT22;16488;52.396;10.696;2022-08-04T00:28:27;19.10;99.90
29551;DHT22;16488;52.396;10.696;2022-08-04T00:30:54;19.10;99.90
29551;DHT22;16488;52.396;10.696;2022-08-04T00:33:20;19.00;99.90
29551;DHT22;16488;52.396;10.696;2022-08-04T00:35:49;18.90;99.90
29551;DHT22;16488;52.396;10.696;2022-08-04T00:38:18;18.90;99.90
29551;DHT22;16488;52.396;10.696;2022-08-04T00:43:33;18.80;99.90
29551;DHT22;16488;52.396;10.696;2022-08-04T00:46:39;18.80;99.90
29551;DHT22;16488;52.396;10.696;2022-08-04T00:57:43;18.70;99.90
29551;DHT22;16488;52.396;10.696;2022-08-04T01:00:15;18.60;99.90
29551;DHT22;16488;52.396;10.696;2022-08-04T01:05:36;18.60;99.90
29551;DHT22;16488;52.396;10.696;2022-08-04T01:08:17;18.50;99.90
29551;DHT22;16488;52.396;10.696;2022-08-04T01:11:21;18.50;99.90
29551;DHT22;16488;52.396;10.696;2022-08-04T01:16:43;18.60;99.90
29551;DHT22;16488;52.396;10.696;2022-08-04T01:22:17;18.50;99.90
29551;DHT22;16488;52.396;10.696;2022-08-04T01:30:25;18.30;99.90
29551;DHT22;16488;52.396;10.696;2022-08-04T01:32:55;18.30;99.90
29551;DHT22;16488;52.396;10.696;2022-08-04T01:35:34;18.30;99.90
29551;DHT22;16488;52.396;10.696;2022-08-04T01:38:01;18.30;99.90
29551;DHT22;16488;52.396;10.696;2022-08-04T01:40:30;18.20;99.90
29551;DHT22;16488;52.396;10.696;2022-08-04T01:42:57;18.20;99.90
29551;DHT22;16488;52.396;10.696;2022-08-04T01:45:24;18.20;99.90
29551;DHT22;16488;52.396;10.696;2022-08-04T01:47:53;18.10;99.90
29551;DHT22;16488;52.396;10.696;2022-08-04T01:50:20;18.00;99.90
29551;DHT22;16488;52.396;10.696;2022-08-04T01:52:46;17.90;99.90
29551;DHT22;16488;52.396;10.696;2022-08-04T01:55:13;17.90;99.90
29551;DHT22;16488;52.396;10.696;2022-08-04T01:57:43;17.90;99.90
29551;DHT22;16488;52.396;10.696;2022-08-04T02:00:10;17.90;99.90
29551;DHT22;16488;52.396;10.696;2022-08-04T02:02:36;17.80;99.90
29551;DHT22;16488;52.396;10.696;2022-08-04T02:05:02;17.90;99.90
29551;DHT22;16488;52.396;10.696;2022-08-04T02:13:24;17.80;99.90
29551;DHT22;16488;52.396;10.696;2022-08-04T02:16:07;17.70;99.90
29551;DHT22;16488;52.396;10.696;2022-08-04T02:21:18;17.60;99.90
29551;DHT22;16488;52.396;10.696;2022-08-04T02:23:51;17.50;99.90
29551;DHT22;16488;52.396;10.696;2022-08-04T02:26:19;17.50;99.90
29551;DHT22;16488;52.396;10.696;2022-08-04T02:28:46;17.60;99.90
29551;DHT22;16488;52.396;10.696;2022-08-04T02:31:30;17.60;99.90
29551;DHT22;16488;52.396;10.696;2022-08-04T02:36:51;17.70;99.90
29551;DHT22;16488;52.396;10.696;2022-08-04T02:39:20;17.70;99.90
29551;DHT22;16488;52.396;10.696;2022-08-04T02:41:48;17.50;99.90
29551;DHT22;16488;52.396;10.696;2022-08-04T02:44:21;17.60;99.90
29551;DHT22;16488;52.396;10.696;2022-08-04T02:46:50;17.60;99.90
29551;DHT22;16488;52.396;10.696;2022-08-04T02:49:16;17.60;99.90
29551;DHT22;16488;52.396;10.696;2022-08-04T02:51:44;17.50;99.90
29551;DHT22;16488;52.396;10.696;2022-08-04T02:54:14;17.50;99.90
29551;DHT22;16488;52.396;10.696;2022-08-04T02:56:44;17.50;99.90
29551;DHT22;16488;52.396;10.696;2022-08-04T02:59:11;17.50;99.90
29551;DHT22;16488;52.396;10.696;2022-08-04T03:01:38;17.50;99.90
29551;DHT22;16488;52.396;10.696;2022-08-04T03:12:27;17.50;99.90
29551;DHT22;16488;52.396;10.696;2022-08-04T03:32:54;17.20;99.90
29551;DHT22;16488;52.396;10.696;2022-08-04T03:38:17;17.10;99.90
29551;DHT22;16488;52.396;10.696;2022-08-04T03:47:21;17.00;99.90
29551;DHT22;16488;52.396;10.696;2022-08-04T03:56:39;17.00;99.90
29551;DHT22;16488;52.396;10.696;2022-08-04T04:19:16;17.30;99.90
29551;DHT22;16488;52.396;10.696;2022-08-04T04:35:13;17.00;99.90
29551;DHT22;16488;52.396;10.696;2022-08-04T04:43:46;17.10;99.90
29551;DHT22;16488;52.396;10.696;2022-08-04T04:46:29;17.10;99.90
29551;DHT22;16488;52.396;10.696;2022-08-04T04:57:06;17.30;99.90
29551;DHT22;16488;52.396;10.696;2022-08-04T04:59:37;17.40;99.90
29551;DHT22;16488;52.396;10.696;2022-08-04T05:10:26;17.90;99.90
29551;DHT22;16488;52.396;10.696;2022-08-04T05:13:08;18.00;99.90
29551;DHT22;16488;52.396;10.696;2022-08-04T05:15:41;18.00;99.90
29551;DHT22;16488;52.396;10.696;2022-08-04T05:18:08;18.20;99.90
29551;DHT22;16488;52.396;10.696;2022-08-04T05:20:41;18.30;99.90
29551;DHT22;16488;52.396;10.696;2022-08-04T05:23:16;18.50;99.90
29551;DHT22;16488;52.396;10.696;2022-08-04T05:28:16;18.70;99.90
29551;DHT22;16488;52.396;10.696;2022-08-04T05:30:46;18.90;99.90
29551;DHT22;16488;52.396;10.696;2022-08-04T05:33:16;18.90;99.90
29551;DHT22;16488;52.396;10.696;2022-08-04T05:35:45;19.00;99.90
29551;DHT22;16488;52.396;10.696;2022-08-04T05:38:16;19.10;99.90
29551;DHT22;16488;52.396;10.696;2022-08-04T05:40:42;19.20;99.90
29551;DHT22;16488;52.396;10.696;2022-08-04T05:43:08;19.30;99.90
29551;DHT22;16488;52.396;10.696;2022-08-04T05:45:35;19.40;99.90
29551;DHT22;16488;52.396;10.696;2022-08-04T05:48:02;19.50;99.90
29551;DHT22;16488;52.396;10.696;2022-08-04T05:50:29;19.60;99.90
29551;DHT22;16488;52.396;10.696;2022-08-04T05:52:56;19.80;99.90
29551;DHT22;16488;52.396;10.696;2022-08-04T05:55:24;19.90;99.90
29551;DHT22;16488;52.396;10.696;2022-08-04T05:57:50;20.00;99.90
29551;DHT22;16488;52.396;10.696;2022-08-04T06:00:17;20.20;99.90
29551;DHT22;16488;52.396;10.696;2022-08-04T06:02:45;20.30;99.90
29551;DHT22;16488;52.396;10.696;2022-08-04T06:05:13;20.30;99.90
29551;DHT22;16488;52.396;10.696;2022-08-04T06:07:41;20.40;99.90
29551;DHT22;16488;52.396;10.696;2022-08-04T06:10:06;20.50;99.90
29551;DHT22;16488;52.396;10.696;2022-08-04T06:12:40;20.60;99.90
29551;DHT22;16488;52.396;10.696;2022-08-04T06:15:08;20.70;99.90
29551;DHT22;16488;52.396;10.696;2022-08-04T06:17:48;20.80;99.90
29551;DHT22;16488;52.396;10.696;2022-08-04T06:20:15;20.90;99.90
29551;DHT22;16488;52.396;10.696;2022-08-04T06:22:43;21.10;99.90
29551;DHT22;16488;52.396;10.696;2022-08-04T06:25:14;21.20;99.90
29551;DHT22;16488;52.396;10.696;2022-08-04T06:27:41;21.30;99.90
29551;DHT22;16488;52.396;10.696;2022-08-04T06:30:07;21.50;99.90
29551;DHT22;16488;52.396;10.696;2022-08-04T06:32:40;21.70;99.90
29551;DHT22;16488;52.396;10.696;2022-08-04T06:35:14;21.80;99.90
29551;DHT22;16488;52.396;10.696;2022-08-04T06:37:41;22.00;99.90
29551;DHT22;16488;52.396;10.696;2022-08-04T06:40:08;22.10;99.90
29551;DHT22;16488;52.396;10.696;2022-08-04T06:42:34;22.20;99.90
29551;DHT22;16488;52.396;10.696;2022-08-04T06:45:02;22.40;99.90
29551;DHT22;16488;52.396;10.696;2022-08-04T06:47:29;22.60;99.90
29551;DHT22;16488;52.396;10.696;2022-08-04T06:49:55;22.70;99.90
29551;DHT22;16488;52.396;10.696;2022-08-04T06:52:21;22.90;99.90
29551;DHT22;16488;52.396;10.696;2022-08-04T06:54:50;23.00;99.90
29551;DHT22;16488;52.396;10.696;2022-08-04T06:57:18;23.10;99.90
29551;DHT22;16488;52.396;10.696;2022-08-04T06:59:49;23.20;99.90
29551;DHT22;16488;52.396;10.696;2022-08-04T07:02:20;23.40;99.90
29551;DHT22;16488;52.396;10.696;2022-08-04T07:04:48;23.50;99.90
29551;DHT22;16488;52.396;10.696;2022-08-04T07:07:14;23.70;99.90
29551;DHT22;16488;52.396;10.696;2022-08-04T07:09:40;23.90;99.90
29551;DHT22;16488;52.396;10.696;2022-08-04T07:12:07;24.00;99.90
29551;DHT22;16488;52.396;10.696;2022-08-04T07:14:33;24.10;99.90
29551;DHT22;16488;52.396;10.696;2022-08-04T07:17:07;24.30;99.90
29551;DHT22;16488;52.396;10.696;2022-08-04T07:19:34;24.50;99.90
29551;DHT22;16488;52.396;10.696;2022-08-04T07:22:01;24.60;99.90
29551;DHT22;16488;52.396;10.696;2022-08-04T07:24:31;24.70;99.90
29551;DHT22;16488;52.396;10.696;2022-08-04T07:26:58;24.80;99.90
29551;DHT22;16488;52.396;10.696;2022-08-04T07:29:24;24.80;99.90
29551;DHT22;16488;52.396;10.696;2022-08-04T07:31:50;25.00;99.90
29551;DHT22;16488;52.396;10.696;2022-08-04T07:34:18;25.10;99.90
29551;DHT22;16488;52.396;10.696;2022-08-04T07:36:43;25.20;99.90
29551;DHT22;16488;52.396;10.696;2022-08-04T07:39:09;25.30;99.90
29551;DHT22;16488;52.396;10.696;2022-08-04T07:41:35;25.40;99.30
29551;DHT22;16488;52.396;10.696;2022-08-04T07:44:02;25.60;98.00
29551;DHT22;16488;52.396;10.696;2022-08-04T07:46:29;25.90;97.60
29551;DHT22;16488;52.396;10.696;2022-08-04T07:48:54;26.00;97.40
29551;DHT22;16488;52.396;10.696;2022-08-04T07:51:21;26.20;97.50
29551;DHT22;16488;52.396;10.696;2022-08-04T07:53:47;26.20;97.20
29551;DHT22;16488;52.396;10.696;2022-08-04T07:56:14;26.30;96.90
29551;DHT22;16488;52.396;10.696;2022-08-04T07:58:40;26.40;96.00
29551;DHT22;16488;52.396;10.696;2022-08-04T08:01:07;26.50;95.60
29551;DHT22;16488;52.396;10.696;2022-08-04T08:03:34;26.60;95.00
29551;DHT22;16488;52.396;10.696;2022-08-04T08:06:00;26.80;94.20
29551;DHT22;16488;52.396;10.696;2022-08-04T08:08:25;26.90;93.20
29551;DHT22;16488;52.396;10.696;2022-08-04T08:10:51;27.00;92.70
29551;DHT22;16488;52.396;10.696;2022-08-04T08:13:18;27.20;92.50
29551;DHT22;16488;52.396;10.696;2022-08-04T08:15:44;27.40;91.00
29551;DHT22;16488;52.396;10.696;2022-08-04T08:18:11;27.50;90.80
29551;DHT22;16488;52.396;10.696;2022-08-04T08:20:36;27.60;90.30
29551;DHT22;16488;52.396;10.696;2022-08-04T08:23:02;27.80;89.00
29551;DHT22;16488;52.396;10.696;2022-08-04T08:25:32;28.00;87.40
29551;DHT22;16488;52.396;10.696;2022-08-04T08:27:58;28.10;86.70
29551;DHT22;16488;52.396;10.696;2022-08-04T08:30:24;28.20;85.20
29551;DHT22;16488;52.396;10.696;2022-08-04T08:32:50;28.40;81.90
29551;DHT22;16488;52.396;10.696;2022-08-04T08:35:16;28.60;80.00
29551;DHT22;16488;52.396;10.696;2022-08-04T08:37:53;28.80;79.60
29551;DHT22;16488;52.396;10.696;2022-08-04T08:40:35;29.10;78.10
29551;DHT22;16488;52.396;10.696;2022-08-04T08:51:32;30.20;69.20
29551;DHT22;16488;52.396;10.696;2022-08-04T09:00:59;30.80;61.80
29551;DHT22;16488;52.396;10.696;2022-08-04T09:03:16;31.10;61.90
29551;DHT22;16488;52.396;10.696;2022-08-04T09:11:19;31.30;59.10
29551;DHT22;16488;52.396;10.696;2022-08-04T09:13:55;31.30;59.10
29551;DHT22;16488;52.396;10.696;2022-08-04T09:16:37;31.40;58.70
29551;DHT22;16488;52.396;10.696;2022-08-04T09:22:03;31.80;56.10
29551;DHT22;16488;52.396;10.696;2022-08-04T09:27:19;32.10;53.20
29551;DHT22;16488;52.396;10.696;2022-08-04T09:30:03;32.30;52.40
29551;DHT22;16488;52.396;10.696;2022-08-04T09:32:40;32.40;51.90
29551;DHT22;16488;52.396;10.696;2022-08-04T09:35:39;32.50;51.20
29551;DHT22;16488;52.396;10.696;2022-08-04T09:46:08;33.00;50.00
29551;DHT22;16488;52.396;10.696;2022-08-04T09:48:52;33.00;49.30
29551;DHT22;16488;52.396;10.696;2022-08-04T09:56:59;33.30;47.90
29551;DHT22;16488;52.396;10.696;2022-08-04T09:59:49;33.30;47.70
29551;DHT22;16488;52.396;10.696;2022-08-04T10:02:20;33.50;47.70
29551;DHT22;16488;52.396;10.696;2022-08-04T10:04:48;33.40;46.40
29551;DHT22;16488;52.396;10.696;2022-08-04T10:07:47;33.40;46.10
29551;DHT22;16488;52.396;10.696;2022-08-04T10:13:42;33.30;47.50
29551;DHT22;16488;52.396;10.696;2022-08-04T10:16:34;33.30;47.30
29551;DHT22;16488;52.396;10.696;2022-08-04T10:19:31;33.40;46.40
29551;DHT22;16488;52.396;10.696;2022-08-04T10:22:14;33.60;45.90
29551;DHT22;16488;52.396;10.696;2022-08-04T10:27:25;33.50;46.70
29551;DHT22;16488;52.396;10.696;2022-08-04T10:30:02;33.50;46.60
29551;DHT22;16488;52.396;10.696;2022-08-04T10:32:39;33.40;48.00
29551;DHT22;16488;52.396;10.696;2022-08-04T10:35:16;33.50;47.60
29551;DHT22;16488;52.396;10.696;2022-08-04T10:40:38;33.60;46.80
29551;DHT22;16488;52.396;10.696;2022-08-04T10:46:11;33.70;47.00
29551;DHT22;16488;52.396;10.696;2022-08-04T10:49:06;33.80;46.70
29551;DHT22;16488;52.396;10.696;2022-08-04T10:51:54;33.80;46.80
29551;DHT22;16488;52.396;10.696;2022-08-04T10:54:44;33.80;46.00
29551;DHT22;16488;52.396;10.696;2022-08-04T10:59:59;33.80;46.20
29551;DHT22;16488;52.396;10.696;2022-08-04T11:05:54;34.10;45.60
29551;DHT22;16488;52.396;10.696;2022-08-04T11:09:04;34.00;45.50
29551;DHT22;16488;52.396;10.696;2022-08-04T11:17:21;33.90;46.30
29551;DHT22;16488;52.396;10.696;2022-08-04T11:19:33;33.80;45.00
29551;DHT22;16488;52.396;10.696;2022-08-04T11:22:13;33.50;45.90
29551;DHT22;16488;52.396;10.696;2022-08-04T11:24:52;33.50;46.90
29551;DHT22;16488;52.396;10.696;2022-08-04T11:27:27;33.40;46.60
29551;DHT22;16488;52.396;10.696;2022-08-04T11:30:07;33.30;47.20
29551;DHT22;16488;52.396;10.696;2022-08-04T11:35:06;33.20;48.50
29551;DHT22;16488;52.396;10.696;2022-08-04T11:37:47;33.20;47.40
29551;DHT22;16488;52.396;10.696;2022-08-04T11:40:36;33.30;47.70
29551;DHT22;16488;52.396;10.696;2022-08-04T11:44:15;33.30;47.20
29551;DHT22;16488;52.396;10.696;2022-08-04T11:49:09;33.30;48.90
29551;DHT22;16488;52.396;10.696;2022-08-04T11:51:37;33.40;47.60
29551;DHT22;16488;52.396;10.696;2022-08-04T11:54:04;33.50;47.00
29551;DHT22;16488;52.396;10.696;2022-08-04T11:56:30;33.60;46.70
29551;DHT22;16488;52.396;10.696;2022-08-04T11:58:57;33.60;46.00
29551;DHT22;16488;52.396;10.696;2022-08-04T12:06:48;34.10;46.40
29551;DHT22;16488;52.396;10.696;2022-08-04T12:17:34;34.40;46.00
29551;DHT22;16488;52.396;10.696;2022-08-04T12:20:03;34.60;45.20
29551;DHT22;16488;52.396;10.696;2022-08-04T12:22:38;34.70;45.20
29551;DHT22;16488;52.396;10.696;2022-08-04T12:25:13;34.80;44.40
29551;DHT22;16488;52.396;10.696;2022-08-04T12:27:49;34.80;44.80
29551;DHT22;16488;52.396;10.696;2022-08-04T12:30:17;34.80;44.70
29551;DHT22;16488;52.396;10.696;2022-08-04T12:35:39;34.40;45.60
29551;DHT22;16488;52.396;10.696;2022-08-04T12:38:11;34.20;46.10
29551;DHT22;16488;52.396;10.696;2022-08-04T12:40:45;34.00;46.60
29551;DHT22;16488;52.396;10.696;2022-08-04T12:43:39;34.00;45.70
29551;DHT22;16488;52.396;10.696;2022-08-04T12:46:12;34.30;45.60
29551;DHT22;16488;52.396;10.696;2022-08-04T12:48:44;34.70;44.50
29551;DHT22;16488;52.396;10.696;2022-08-04T12:51:12;34.90;43.90
29551;DHT22;16488;52.396;10.696;2022-08-04T12:53:40;35.10;43.10
29551;DHT22;16488;52.396;10.696;2022-08-04T12:56:11;35.20;43.70
29551;DHT22;16488;52.396;10.696;2022-08-04T12:58:41;35.20;43.00
29551;DHT22;16488;52.396;10.696;2022-08-04T13:01:22;35.10;43.50
29551;DHT22;16488;52.396;10.696;2022-08-04T13:03:55;35.20;43.50
29551;DHT22;16488;52.396;10.696;2022-08-04T13:06:29;35.20;42.90
29551;DHT22;16488;52.396;10.696;2022-08-04T13:09:02;35.30;43.20
29551;DHT22;16488;52.396;10.696;2022-08-04T13:11:48;35.30;43.80
29551;DHT22;16488;52.396;10.696;2022-08-04T13:14:15;35.40;43.50
29551;DHT22;16488;52.396;10.696;2022-08-04T13:16:41;35.50;44.30
29551;DHT22;16488;52.396;10.696;2022-08-04T13:19:08;35.60;44.30
29551;DHT22;16488;52.396;10.696;2022-08-04T13:21:40;35.70;43.00
29551;DHT22;16488;52.396;10.696;2022-08-04T13:24:11;35.70;42.20
29551;DHT22;16488;52.396;10.696;2022-08-04T13:26:49;35.60;42.50
29551;DHT22;16488;52.396;10.696;2022-08-04T13:29:18;35.40;42.80
29551;DHT22;16488;52.396;10.696;2022-08-04T13:31:45;35.50;43.20
29551;DHT22;16488;52.396;10.696;2022-08-04T13:34:11;35.50;42.70
29551;DHT22;16488;52.396;10.696;2022-08-04T13:36:41;35.50;44.40
29551;DHT22;16488;52.396;10.696;2022-08-04T13:39:19;35.60;42.90
29551;DHT22;16488;52.396;10.696;2022-08-04T13:41:51;35.80;43.70
29551;DHT22;16488;52.396;10.696;2022-08-04T13:44:20;35.80;42.20
29551;DHT22;16488;52.396;10.696;2022-08-04T13:46:49;35.70;43.10
29551;DHT22;16488;52.396;10.696;2022-08-04T13:49:17;35.70;43.90
29551;DHT22;16488;52.396;10.696;2022-08-04T13:51:56;35.70;43.20
29551;DHT22;16488;52.396;10.696;2022-08-04T13:54:23;35.60;42.80
29551;DHT22;16488;52.396;10.696;2022-08-04T13:56:54;35.60;42.70
29551;DHT22;16488;52.396;10.696;2022-08-04T13:59:24;35.60;43.20
29551;DHT22;16488;52.396;10.696;2022-08-04T14:02:02;35.70;43.40
29551;DHT22;16488;52.396;10.696;2022-08-04T14:04:31;35.80;43.40
29551;DHT22;16488;52.396;10.696;2022-08-04T14:07:05;35.80;43.40
29551;DHT22;16488;52.396;10.696;2022-08-04T14:09:37;35.60;42.80
29551;DHT22;16488;52.396;10.696;2022-08-04T14:14:32;35.30;44.40
29551;DHT22;16488;52.396;10.696;2022-08-04T14:22:27;35.00;44.40
29551;DHT22;16488;52.396;10.696;2022-08-04T14:25:11;34.90;44.40
29551;DHT22;16488;52.396;10.696;2022-08-04T14:27:55;35.00;44.80
29551;DHT22;16488;52.396;10.696;2022-08-04T14:30:35;35.20;44.80
29551;DHT22;16488;52.396;10.696;2022-08-04T14:33:07;35.40;43.50
29551;DHT22;16488;52.396;10.696;2022-08-04T14:35:33;35.50;43.60
29551;DHT22;16488;52.396;10.696;2022-08-04T14:38:09;35.50;43.20
29551;DHT22;16488;52.396;10.696;2022-08-04T14:40:39;35.60;43.30
29551;DHT22;16488;52.396;10.696;2022-08-04T14:43:07;35.60;43.10
29551;DHT22;16488;52.396;10.696;2022-08-04T14:45:37;35.60;43.80
29551;DHT22;16488;52.396;10.696;2022-08-04T14:50:39;35.50;42.90
29551;DHT22;16488;52.396;10.696;2022-08-04T14:53:12;35.50;42.90
29551;DHT22;16488;52.396;10.696;2022-08-04T14:55:43;35.40;43.10
29551;DHT22;16488;52.396;10.696;2022-08-04T14:58:25;35.30;43.90
29551;DHT22;16488;52.396;10.696;2022-08-04T15:00:55;35.10;43.20
29551;DHT22;16488;52.396;10.696;2022-08-04T15:03:21;35.00;43.90
29551;DHT22;16488;52.396;10.696;2022-08-04T15:05:47;34.90;44.40
29551;DHT22;16488;52.396;10.696;2022-08-04T15:08:14;34.80;44.60
29551;DHT22;16488;52.396;10.696;2022-08-04T15:10:42;34.70;44.80
29551;DHT22;16488;52.396;10.696;2022-08-04T15:13:09;34.60;44.70
29551;DHT22;16488;52.396;10.696;2022-08-04T15:15:38;34.50;44.50
29551;DHT22;16488;52.396;10.696;2022-08-04T15:18:07;34.40;44.60
29551;DHT22;16488;52.396;10.696;2022-08-04T15:20:33;34.30;44.80
29551;DHT22;16488;52.396;10.696;2022-08-04T15:23:01;34.30;45.40
29551;DHT22;16488;52.396;10.696;2022-08-04T15:25:27;34.20;45.70
29551;DHT22;16488;52.396;10.696;2022-08-04T15:27:56;34.10;45.80
29551;DHT22;16488;52.396;10.696;2022-08-04T15:30:22;34.00;46.00
29551;DHT22;16488;52.396;10.696;2022-08-04T15:32:52;33.90;46.40
29551;DHT22;16488;52.396;10.696;2022-08-04T15:35:23;33.90;46.70
29551;DHT22;16488;52.396;10.696;2022-08-04T15:40:47;33.70;47.60
29551;DHT22;16488;52.396;10.696;2022-08-04T15:46:10;33.60;47.80
29551;DHT22;16488;52.396;10.696;2022-08-04T15:48:37;33.60;47.90
29551;DHT22;16488;52.396;10.696;2022-08-04T15:51:06;33.50;48.00
29551;DHT22;16488;52.396;10.696;2022-08-04T15:58:50;33.40;48.20
29551;DHT22;16488;52.396;10.696;2022-08-04T16:01:17;33.40;49.00
29551;DHT22;16488;52.396;10.696;2022-08-04T16:03:49;33.20;49.80
29551;DHT22;16488;52.396;10.696;2022-08-04T16:16:30;28.50;80.90
29551;DHT22;16488;52.396;10.696;2022-08-04T16:19:06;28.10;87.40
29551;DHT22;16488;52.396;10.696;2022-08-04T16:21:46;27.90;90.00
29551;DHT22;16488;52.396;10.696;2022-08-04T16:24:39;27.70;90.00
29551;DHT22;16488;52.396;10.696;2022-08-04T16:27:09;27.50;91.20
29551;DHT22;16488;52.396;10.696;2022-08-04T16:34:31;27.10;94.30
29551;DHT22;16488;52.396;10.696;2022-08-04T16:36:58;27.10;95.40
29551;DHT22;16488;52.396;10.696;2022-08-04T16:39:24;27.10;96.50
29551;DHT22;16488;52.396;10.696;2022-08-04T16:41:50;27.10;97.20
29551;DHT22;16488;52.396;10.696;2022-08-04T16:44:33;27.20;98.30
29551;DHT22;16488;52.396;10.696;2022-08-04T16:47:02;27.20;99.90
29551;DHT22;16488;52.396;10.696;2022-08-04T16:49:29;27.20;99.90
29551;DHT22;16488;52.396;10.696;2022-08-04T16:52:01;27.20;99.90
29551;DHT22;16488;52.396;10.696;2022-08-04T16:54:35;27.10;99.90
29551;DHT22;16488;52.396;10.696;2022-08-04T16:57:08;27.10;99.90
29551;DHT22;16488;52.396;10.696;2022-08-04T16:59:34;27.10;99.90
29551;DHT22;16488;52.396;10.696;2022-08-04T17:01:59;27.10;99.90
29551;DHT22;16488;52.396;10.696;2022-08-04T17:04:30;27.20;99.90
29551;DHT22;16488;52.396;10.696;2022-08-04T17:07:04;27.10;99.90
29551;DHT22;16488;52.396;10.696;2022-08-04T17:09:31;27.00;99.90
29551;DHT22;16488;52.396;10.696;2022-08-04T17:11:58;27.00;99.90
29551;DHT22;16488;52.396;10.696;2022-08-04T17:14:28;27.00;99.90
29551;DHT22;16488;52.396;10.696;2022-08-04T17:16:56;27.00;99.90
29551;DHT22;16488;52.396;10.696;2022-08-04T17:19:22;27.00;99.90
29551;DHT22;16488;52.396;10.696;2022-08-04T17:21:50;27.00;99.90
29551;DHT22;16488;52.396;10.696;2022-08-04T17:24:16;26.90;99.90
29551;DHT22;16488;52.396;10.696;2022-08-04T17:26:42;26.80;99.90
29551;DHT22;16488;52.396;10.696;2022-08-04T17:29:07;26.70;99.90
29551;DHT22;16488;52.396;10.696;2022-08-04T17:31:35;26.60;99.90
29551;DHT22;16488;52.396;10.696;2022-08-04T17:34:10;26.50;99.90
29551;DHT22;16488;52.396;10.696;2022-08-04T17:36:37;26.40;99.90
29551;DHT22;16488;52.396;10.696;2022-08-04T17:39:13;26.40;99.90
29551;DHT22;16488;52.396;10.696;2022-08-04T17:41:39;26.40;99.90
29551;DHT22;16488;52.396;10.696;2022-08-04T17:44:05;26.40;99.90
29551;DHT22;16488;52.396;10.696;2022-08-04T17:46:39;26.50;99.90
29551;DHT22;16488;52.396;10.696;2022-08-04T17:51:56;26.50;99.90
29551;DHT22;16488;52.396;10.696;2022-08-04T17:56:52;26.50;99.90
29551;DHT22;16488;52.396;10.696;2022-08-04T18:12:21;26.50;99.90
29551;DHT22;16488;52.396;10.696;2022-08-04T18:14:49;26.40;99.90
29551;DHT22;16488;52.396;10.696;2022-08-04T18:19:58;26.30;99.90
29551;DHT22;16488;52.396;10.696;2022-08-04T18:22:23;26.30;99.90
29551;DHT22;16488;52.396;10.696;2022-08-04T18:24:49;26.40;99.90
29551;DHT22;16488;52.396;10.696;2022-08-04T18:27:16;26.40;99.90
29551;DHT22;16488;52.396;10.696;2022-08-04T18:29:42;26.50;99.90
29551;DHT22;16488;52.396;10.696;2022-08-04T18:32:08;26.40;99.90
29551;DHT22;16488;52.396;10.696;2022-08-04T18:34:34;26.30;99.90
29551;DHT22;16488;52.396;10.696;2022-08-04T18:37:00;26.40;99.90
29551;DHT22;16488;52.396;10.696;2022-08-04T18:39:25;26.40;99.90
29551;DHT22;16488;52.396;10.696;2022-08-04T18:41:53;26.40;99.90
29551;DHT22;16488;52.396;10.696;2022-08-04T18:44:19;26.30;99.90
29551;DHT22;16488;52.396;10.696;2022-08-04T18:46:45;26.30;99.90
29551;DHT22;16488;52.396;10.696;2022-08-04T18:49:11;26.20;99.90
29551;DHT22;16488;52.396;10.696;2022-08-04T18:51:36;26.10;99.90
29551;DHT22;16488;52.396;10.696;2022-08-04T18:54:03;26.00;99.90
29551;DHT22;16488;52.396;10.696;2022-08-04T18:56:30;26.00;99.90
29551;DHT22;16488;52.396;10.696;2022-08-04T18:58:56;25.90;99.90
29551;DHT22;16488;52.396;10.696;2022-08-04T19:01:21;25.90;99.90
29551;DHT22;16488;52.396;10.696;2022-08-04T19:03:47;25.80;99.90
29551;DHT22;16488;52.396;10.696;2022-08-04T19:06:13;25.80;99.90
29551;DHT22;16488;52.396;10.696;2022-08-04T19:08:38;25.70;99.90
29551;DHT22;16488;52.396;10.696;2022-08-04T19:11:05;25.70;99.90
29551;DHT22;16488;52.396;10.696;2022-08-04T19:13:30;25.60;99.90
29551;DHT22;16488;52.396;10.696;2022-08-04T19:15:57;25.50;99.90
29551;DHT22;16488;52.396;10.696;2022-08-04T19:18:23;25.50;99.90
29551;DHT22;16488;52.396;10.696;2022-08-04T19:20:49;25.40;99.90
29551;DHT22;16488;52.396;10.696;2022-08-04T19:23:15;25.40;99.90
29551;DHT22;16488;52.396;10.696;2022-08-04T19:25:42;25.40;99.90
29551;DHT22;16488;52.396;10.696;2022-08-04T19:28:08;25.30;99.90
29551;DHT22;16488;52.396;10.696;2022-08-04T19:30:33;25.20;99.90
29551;DHT22;16488;52.396;10.696;2022-08-04T19:32:59;25.10;99.90
29551;DHT22;16488;52.396;10.696;2022-08-04T19:35:24;25.00;99.90
29551;DHT22;16488;52.396;10.696;2022-08-04T19:37:50;24.90;99.90
29551;DHT22;16488;52.396;10.696;2022-08-04T19:40:15;24.80;99.90
29551;DHT22;16488;52.396;10.696;2022-08-04T19:42:41;24.70;99.90
29551;DHT22;16488;52.396;10.696;2022-08-04T19:45:08;24.70;99.90
29551;DHT22;16488;52.396;10.696;2022-08-04T19:47:34;24.60;99.90
29551;DHT22;16488;52.396;10.696;2022-08-04T19:50:00;24.60;99.90
29551;DHT22;16488;52.396;10.696;2022-08-04T19:52:26;24.60;99.90
29551;DHT22;16488;52.396;10.696;2022-08-04T19:54:51;24.60;99.90
29551;DHT22;16488;52.396;10.696;2022-08-04T19:57:17;24.50;99.90
29551;DHT22;16488;52.396;10.696;2022-08-04T19:59:43;24.40;99.90
29551;DHT22;16488;52.396;10.696;2022-08-04T20:02:09;24.40;99.90
29551;DHT22;16488;52.396;10.696;2022-08-04T20:04:35;24.30;99.90
29551;DHT22;16488;52.396;10.696;2022-08-04T20:07:00;24.30;99.90
29551;DHT22;16488;52.396;10.696;2022-08-04T20:09:26;24.30;99.90
29551;DHT22;16488;52.396;10.696;2022-08-04T20:11:52;24.20;99.90
29551;DHT22;16488;52.396;10.696;2022-08-04T20:14:17;24.10;99.90
29551;DHT22;16488;52.396;10.696;2022-08-04T20:16:43;24.00;99.90
29551;DHT22;16488;52.396;10.696;2022-08-04T20:19:08;24.00;99.90